Time;durP1;ratioP1;P1;durP2;ratioP2;P2;SDS_P1;SDS_P2;PMS_P1;PMS_P2;Temp;Humidity;BMP_temperature;BMP_pressure;BME280_temperature;BME280_humidity;BME280_pressure;Samples;Min_cycle;Max_cycle;Signal;HPM_P1;HPM_P2
2022/10/30 00:01:33;;;;;;;20.37;10.83;;;;;;;;;;5037259;28;20210;-68
2022/10/30 00:03:59;;;;;;;26.17;11.50;;;;;;;;;;5037515;28;20232;-69
2022/10/30 00:06:25;;;;;;;22.80;10.83;;;;;;;;;;5037368;28;20178;-69
2022/10/30 00:08:51;;;;;;;18.53;9.83;;;;;;;;;;5037215;28;20229;-69
2022/10/30 00:11:17;;;;;;;19.27;10.47;;;;;;;;;;5055383;28;20225;-68
2022/10/30 00:13:43;;;;;;;19.57;10.83;;;;;;;;;;5054988;28;20190;-69
2022/10/30 00:16:09;;;;;;;22.20;10.73;;;;;;;;;;5036951;28;20213;-68
2022/10/30 00:18:36;;;;;;;20.73;10.87;;;;;;;;;;5037046;28;20202;-68
2022/10/30 00:21:06;;;;;;;18.53;10.00;;;;;;;;;;5054117;28;20686;-69
2022/10/30 00:23:32;;;;;;;27.70;10.90;;;;;;;;;;5036717;28;20698;-68
2022/10/30 00:26:02;;;;;;;27.90;10.17;;;;;;;;;;5054975;28;20185;-69
2022/10/30 00:28:27;;;;;;;24.37;10.00;;;;;;;;;;5036617;28;20198;-69
2022/10/30 00:30:53;;;;;;;19.43;9.27;;;;;;;;;;5036916;28;20174;-69
2022/10/30 00:33:19;;;;;;;19.03;9.50;;;;;;;;;;5054653;28;20197;-68
2022/10/30 00:35:49;;;;;;;15.33;9.17;;;;;;;;;;5036670;28;20187;-68
2022/10/30 00:38:15;;;;;;;19.77;9.80;;;;;;;;;;5054335;28;20288;-69
2022/10/30 00:40:41;;;;;;;22.47;10.57;;;;;;;;;;5036640;28;20267;-69
2022/10/30 00:43:26;;;;;;;17.90;9.07;;;;;;;;;;5054438;28;20202;-69
2022/10/30 00:45:52;;;;;;;15.20;7.97;;;;;;;;;;5036592;28;20166;-69
2022/10/30 00:48:19;;;;;;;17.97;8.60;;;;;;;;;;5055210;28;20219;-68
2022/10/30 00:50:45;;;;;;;20.97;8.70;;;;;;;;;;5055862;28;20221;-69
2022/10/30 00:53:13;;;;;;;18.03;8.00;;;;;;;;;;5037917;28;20186;-69
2022/10/30 00:55:42;;;;;;;18.50;8.40;;;;;;;;;;5054713;28;20649;-69
2022/10/30 00:58:09;;;;;;;19.13;8.40;;;;;;;;;;5054419;28;20263;-69
2022/10/30 01:00:36;;;;;;;13.27;8.00;;;;;;;;;;5054167;28;20223;-69
2022/10/30 01:03:02;;;;;;;14.30;7.90;;;;;;;;;;5053997;28;20198;-69
2022/10/30 01:05:30;;;;;;;14.70;8.40;;;;;;;;;;5054139;28;20170;-70
2022/10/30 01:07:56;;;;;;;19.17;7.13;;;;;;;;;;5036029;28;20240;-69
2022/10/30 01:10:22;;;;;;;16.93;8.80;;;;;;;;;;5036125;28;20613;-69
2022/10/30 01:12:50;;;;;;;16.03;7.20;;;;;;;;;;5053883;28;20256;-68
2022/10/30 01:15:16;;;;;;;16.70;7.67;;;;;;;;;;5053819;28;20174;-69
2022/10/30 01:18:01;;;;;;;17.07;7.50;;;;;;;;;;5053797;28;20178;-68
2022/10/30 01:20:27;;;;;;;14.27;7.37;;;;;;;;;;5036519;28;20197;-69
2022/10/30 01:23:07;;;;;;;16.10;7.93;;;;;;;;;;5053727;28;20210;-69
2022/10/30 01:25:39;;;;;;;16.57;7.37;;;;;;;;;;5054093;28;20177;-68
2022/10/30 01:28:05;;;;;;;17.53;8.33;;;;;;;;;;5053925;28;20194;-68
2022/10/30 01:30:31;;;;;;;18.80;8.10;;;;;;;;;;5053531;28;20647;-69
2022/10/30 01:33:15;;;;;;;16.10;7.47;;;;;;;;;;5052845;28;20182;-68
2022/10/30 01:35:48;;;;;;;16.57;8.70;;;;;;;;;;5053673;28;20182;-68
2022/10/30 01:38:19;;;;;;;20.17;8.10;;;;;;;;;;5035619;28;20206;-69
2022/10/30 01:40:45;;;;;;;17.73;8.63;;;;;;;;;;5035645;28;20178;-69
2022/10/30 01:43:11;;;;;;;14.57;7.93;;;;;;;;;;5035613;28;20278;-69
2022/10/30 01:45:56;;;;;;;23.23;8.17;;;;;;;;;;5053304;28;20178;-69
2022/10/30 01:48:28;;;;;;;22.90;8.87;;;;;;;;;;5053149;28;20285;-68
2022/10/30 01:51:03;;;;;;;15.67;8.50;;;;;;;;;;5035480;28;20233;-69
2022/10/30 01:53:36;;;;;;;20.70;8.30;;;;;;;;;;5053114;28;20220;-69
2022/10/30 01:56:28;;;;;;;16.10;8.40;;;;;;;;;;5035825;28;20175;-69
2022/10/30 01:59:18;;;;;;;12.27;7.57;;;;;;;;;;5031809;28;20297;-68
2022/10/30 02:01:44;;;;;;;21.23;9.47;;;;;;;;;;5042825;28;20194;-69
2022/10/30 02:04:11;;;;;;;20.77;10.53;;;;;;;;;;5053318;28;20177;-69
2022/10/30 02:06:38;;;;;;;21.70;10.17;;;;;;;;;;5053094;28;20712;-69
2022/10/30 02:09:04;;;;;;;16.87;10.80;;;;;;;;;;5053108;28;20566;-68
2022/10/30 02:11:32;;;;;;;22.97;10.97;;;;;;;;;;5053047;28;20638;-68
2022/10/30 02:13:58;;;;;;;27.53;12.67;;;;;;;;;;5035219;28;20174;-69
2022/10/30 02:16:24;;;;;;;23.80;11.80;;;;;;;;;;5053717;28;20217;-68
2022/10/30 02:18:50;;;;;;;25.23;12.40;;;;;;;;;;5053346;28;20194;-69
2022/10/30 02:21:16;;;;;;;24.60;13.63;;;;;;;;;;5035207;28;20181;-68
2022/10/30 02:23:42;;;;;;;27.43;14.33;;;;;;;;;;5053461;28;20279;-69
2022/10/30 02:26:07;;;;;;;34.20;16.23;;;;;;;;;;5035223;28;20292;-69
2022/10/30 02:28:33;;;;;;;30.57;15.77;;;;;;;;;;5053039;28;20190;-69
2022/10/30 02:30:59;;;;;;;35.93;15.80;;;;;;;;;;5052951;28;20193;-68
2022/10/30 02:33:25;;;;;;;29.03;14.87;;;;;;;;;;5052937;28;20178;-69
2022/10/30 02:35:52;;;;;;;30.20;15.10;;;;;;;;;;5061641;22;20214;-74
2022/10/30 02:38:18;;;;;;;29.13;14.20;;;;;;;;;;5091014;28;20194;-74
2022/10/30 02:40:43;;;;;;;32.57;16.23;;;;;;;;;;5091772;28;20238;-75
2022/10/30 02:43:09;;;;;;;30.30;15.40;;;;;;;;;;5089196;28;20201;-74
2022/10/30 02:45:35;;;;;;;27.57;14.83;;;;;;;;;;5081218;28;20173;-74
2022/10/30 02:48:01;;;;;;;25.20;14.40;;;;;;;;;;5076844;28;20200;-74
2022/10/30 02:50:27;;;;;;;34.33;14.53;;;;;;;;;;5077755;28;20182;-74
2022/10/30 02:52:53;;;;;;;29.67;15.03;;;;;;;;;;5078443;28;20228;-74
2022/10/30 02:55:19;;;;;;;27.07;14.37;;;;;;;;;;5077681;28;20178;-74
2022/10/30 02:57:45;;;;;;;30.30;15.40;;;;;;;;;;5076090;28;20702;-75
2022/10/30 03:00:11;;;;;;;26.50;14.17;;;;;;;;;;5076025;28;20220;-74
2022/10/30 03:02:37;;;;;;;24.27;13.70;;;;;;;;;;5076511;28;20210;-74
2022/10/30 03:05:04;;;;;;;21.83;11.97;;;;;;;;;;5076985;28;20234;-74
2022/10/30 03:07:29;;;;;;;20.80;11.93;;;;;;;;;;5077127;28;20198;-75
2022/10/30 03:09:55;;;;;;;20.60;11.93;;;;;;;;;;5075940;28;20185;-74
2022/10/30 03:12:21;;;;;;;21.07;11.47;;;;;;;;;;5076977;28;20560;-75
2022/10/30 03:14:47;;;;;;;17.00;11.13;;;;;;;;;;5077110;28;20626;-74
2022/10/30 03:17:13;;;;;;;17.43;11.40;;;;;;;;;;5077068;28;20197;-74
2022/10/30 03:19:39;;;;;;;17.80;11.13;;;;;;;;;;5076698;28;20188;-74
2022/10/30 03:22:05;;;;;;;18.87;10.47;;;;;;;;;;5077134;28;20301;-74
2022/10/30 03:24:31;;;;;;;21.67;11.03;;;;;;;;;;5075479;28;20182;-74
2022/10/30 03:26:57;;;;;;;22.77;11.60;;;;;;;;;;5075420;28;20251;-74
2022/10/30 03:29:23;;;;;;;17.40;10.97;;;;;;;;;;5075454;28;20177;-74
2022/10/30 03:31:49;;;;;;;18.27;10.27;;;;;;;;;;5075477;28;20669;-74
2022/10/30 03:34:15;;;;;;;23.10;11.53;;;;;;;;;;5076844;28;20185;-74
2022/10/30 03:36:41;;;;;;;20.80;9.97;;;;;;;;;;5076430;28;20213;-73
2022/10/30 03:39:07;;;;;;;21.77;10.77;;;;;;;;;;5076498;28;20169;-74
2022/10/30 03:41:33;;;;;;;21.10;9.30;;;;;;;;;;5074986;28;20645;-74
2022/10/30 03:43:59;;;;;;;23.43;10.00;;;;;;;;;;5076786;28;20177;-74
2022/10/30 03:46:25;;;;;;;16.47;10.17;;;;;;;;;;5076161;28;20281;-74
2022/10/30 03:48:51;;;;;;;21.67;9.73;;;;;;;;;;5077076;28;20182;-74
2022/10/30 03:51:17;;;;;;;18.87;9.60;;;;;;;;;;5076585;28;20220;-74
2022/10/30 03:53:43;;;;;;;18.03;9.60;;;;;;;;;;5077588;28;20650;-74
2022/10/30 03:56:09;;;;;;;22.83;10.20;;;;;;;;;;5075182;28;20233;-74
2022/10/30 03:58:35;;;;;;;21.13;9.37;;;;;;;;;;5075068;28;20239;-74
2022/10/30 04:01:02;;;;;;;17.50;9.97;;;;;;;;;;5075205;28;20687;-74
2022/10/30 04:03:28;;;;;;;15.83;9.13;;;;;;;;;;5076359;28;20205;-74
2022/10/30 04:05:54;;;;;;;16.37;9.37;;;;;;;;;;5075859;28;20181;-74
2022/10/30 04:08:20;;;;;;;13.90;8.70;;;;;;;;;;5076210;28;20300;-74
2022/10/30 04:10:46;;;;;;;20.37;9.60;;;;;;;;;;5075967;28;20185;-74
2022/10/30 04:13:13;;;;;;;21.03;9.80;;;;;;;;;;5074830;28;20232;-74
2022/10/30 04:15:39;;;;;;;16.20;9.63;;;;;;;;;;5076112;28;20189;-74
2022/10/30 04:18:06;;;;;;;20.90;10.20;;;;;;;;;;5074697;28;20229;-73
2022/10/30 04:20:32;;;;;;;21.20;10.03;;;;;;;;;;5075907;28;20189;-74
2022/10/30 04:22:59;;;;;;;19.43;10.07;;;;;;;;;;5076271;28;20666;-74
2022/10/30 04:25:26;;;;;;;18.47;9.07;;;;;;;;;;5074604;28;20227;-73
2022/10/30 04:27:52;;;;;;;13.63;9.47;;;;;;;;;;5075488;28;20193;-73
2022/10/30 04:30:20;;;;;;;22.07;10.37;;;;;;;;;;5075550;28;20169;-74
2022/10/30 04:32:47;;;;;;;13.83;9.93;;;;;;;;;;5074011;28;20706;-74
2022/10/30 04:35:13;;;;;;;21.87;9.13;;;;;;;;;;5074141;28;20272;-74
2022/10/30 04:37:39;;;;;;;16.83;9.63;;;;;;;;;;5073687;28;20582;-74
2022/10/30 04:40:05;;;;;;;13.83;9.80;;;;;;;;;;5075209;28;20260;-74
2022/10/30 04:42:31;;;;;;;17.90;10.07;;;;;;;;;;5074456;28;20628;-74
2022/10/30 04:44:57;;;;;;;16.97;10.30;;;;;;;;;;5075893;28;20231;-74
2022/10/30 04:47:23;;;;;;;16.20;9.87;;;;;;;;;;5092270;28;20562;-74
2022/10/30 04:49:49;;;;;;;15.53;10.10;;;;;;;;;;5091143;28;20189;-74
2022/10/30 04:52:15;;;;;;;17.13;10.33;;;;;;;;;;5091984;28;20181;-74
2022/10/30 04:54:41;;;;;;;23.47;10.63;;;;;;;;;;5090870;28;20209;-74
2022/10/30 04:57:07;;;;;;;16.33;10.77;;;;;;;;;;5089804;28;20209;-74
2022/10/30 04:59:33;;;;;;;21.33;11.33;;;;;;;;;;5089374;28;20178;-74
2022/10/30 05:01:59;;;;;;;18.47;10.80;;;;;;;;;;5075673;28;20209;-74
2022/10/30 05:04:25;;;;;;;20.03;11.07;;;;;;;;;;5074158;28;20207;-74
2022/10/30 05:06:51;;;;;;;16.80;10.47;;;;;;;;;;5073408;28;20204;-75
2022/10/30 05:09:17;;;;;;;23.17;10.67;;;;;;;;;;5074823;28;20219;-75
2022/10/30 05:11:43;;;;;;;19.33;11.07;;;;;;;;;;5074814;28;20196;-74
2022/10/30 05:14:09;;;;;;;16.47;9.97;;;;;;;;;;5073569;28;20181;-74
2022/10/30 05:16:35;;;;;;;22.87;11.27;;;;;;;;;;5073441;28;20298;-74
2022/10/30 05:19:01;;;;;;;17.93;11.27;;;;;;;;;;5074873;28;20178;-74
2022/10/30 05:21:27;;;;;;;19.03;9.77;;;;;;;;;;5075011;28;20185;-73
2022/10/30 05:23:53;;;;;;;18.10;10.03;;;;;;;;;;5073189;28;20266;-74
2022/10/30 05:26:19;;;;;;;16.80;9.97;;;;;;;;;;5074579;28;20197;-74
2022/10/30 05:28:46;;;;;;;18.40;10.10;;;;;;;;;;5074705;28;20181;-74
2022/10/30 05:31:12;;;;;;;19.07;9.90;;;;;;;;;;5073258;28;20226;-74
2022/10/30 05:33:38;;;;;;;19.40;10.03;;;;;;;;;;5074788;28;20181;-74
2022/10/30 05:36:04;;;;;;;20.63;9.63;;;;;;;;;;5072999;28;20193;-74
2022/10/30 05:38:30;;;;;;;21.80;9.80;;;;;;;;;;5075178;28;20178;-74
2022/10/30 05:40:56;;;;;;;20.43;9.47;;;;;;;;;;5073485;28;20188;-74
2022/10/30 05:43:22;;;;;;;15.43;9.47;;;;;;;;;;5074310;28;20284;-75
2022/10/30 05:45:49;;;;;;;17.10;9.23;;;;;;;;;;5074671;28;20565;-74
2022/10/30 05:48:15;;;;;;;17.10;9.80;;;;;;;;;;5073193;28;20188;-74
2022/10/30 05:50:41;;;;;;;18.67;9.57;;;;;;;;;;5074169;28;20186;-74
2022/10/30 05:53:07;;;;;;;22.50;9.10;;;;;;;;;;5075833;28;20210;-74
2022/10/30 05:55:33;;;;;;;16.50;9.43;;;;;;;;;;5074864;28;20182;-74
2022/10/30 05:57:59;;;;;;;15.93;9.73;;;;;;;;;;5073309;28;20685;-74
2022/10/30 06:00:26;;;;;;;22.70;9.80;;;;;;;;;;5073111;28;20174;-74
2022/10/30 06:02:52;;;;;;;19.23;9.70;;;;;;;;;;5073352;28;20339;-74
2022/10/30 06:05:18;;;;;;;16.00;9.17;;;;;;;;;;5073460;28;20247;-74
2022/10/30 06:07:44;;;;;;;17.10;8.87;;;;;;;;;;5074959;28;20677;-74
2022/10/30 06:10:10;;;;;;;19.70;9.40;;;;;;;;;;5073693;28;20209;-74
2022/10/30 06:12:36;;;;;;;13.47;9.67;;;;;;;;;;5073620;28;20189;-74
2022/10/30 06:15:02;;;;;;;21.40;9.43;;;;;;;;;;5074189;28;20178;-74
2022/10/30 06:17:30;;;;;;;14.57;9.00;;;;;;;;;;5072677;28;20205;-74
2022/10/30 06:19:56;;;;;;;15.40;8.57;;;;;;;;;;5072594;28;20205;-74
2022/10/30 06:22:22;;;;;;;16.43;8.87;;;;;;;;;;5073061;28;20241;-74
2022/10/30 06:24:47;;;;;;;17.73;9.47;;;;;;;;;;5072724;28;20178;-74
2022/10/30 06:27:13;;;;;;;15.23;9.00;;;;;;;;;;5073025;28;20237;-74
2022/10/30 06:29:39;;;;;;;17.90;9.30;;;;;;;;;;5072803;28;20173;-74
2022/10/30 06:32:05;;;;;;;19.83;9.10;;;;;;;;;;5073088;28;20214;-74
2022/10/30 06:34:31;;;;;;;17.00;9.83;;;;;;;;;;5073951;28;20188;-74
2022/10/30 06:36:57;;;;;;;15.70;8.93;;;;;;;;;;5073531;28;20213;-74
2022/10/30 06:39:23;;;;;;;22.03;9.67;;;;;;;;;;5072337;28;20188;-74
2022/10/30 06:41:52;;;;;;;20.60;9.17;;;;;;;;;;5072508;28;20181;-74
2022/10/30 06:44:18;;;;;;;17.53;8.77;;;;;;;;;;5073994;28;20547;-74
2022/10/30 06:46:43;;;;;;;15.87;9.60;;;;;;;;;;5073711;28;20225;-74
2022/10/30 06:49:09;;;;;;;16.00;9.60;;;;;;;;;;5073704;28;20231;-74
2022/10/30 06:51:35;;;;;;;16.50;9.40;;;;;;;;;;5074089;28;20174;-73
2022/10/30 06:54:01;;;;;;;16.00;9.30;;;;;;;;;;5072701;28;20603;-73
2022/10/30 06:56:27;;;;;;;14.77;9.60;;;;;;;;;;5073833;28;20606;-73
2022/10/30 06:58:54;;;;;;;14.80;10.27;;;;;;;;;;5074201;28;20246;-73
2022/10/30 07:01:19;;;;;;;14.27;9.50;;;;;;;;;;5074028;28;20194;-73
2022/10/30 07:03:45;;;;;;;21.17;9.87;;;;;;;;;;5072396;28;20325;-73
2022/10/30 07:06:11;;;;;;;17.30;9.63;;;;;;;;;;5073873;28;20285;-73
2022/10/30 07:08:37;;;;;;;14.37;9.80;;;;;;;;;;5074086;28;20174;-74
2022/10/30 07:11:03;;;;;;;13.93;9.50;;;;;;;;;;5073405;28;20555;-75
2022/10/30 07:13:29;;;;;;;17.07;9.50;;;;;;;;;;5073818;28;20223;-74
2022/10/30 07:15:55;;;;;;;15.20;9.67;;;;;;;;;;5073830;28;20232;-74
2022/10/30 07:18:21;;;;;;;18.20;9.53;;;;;;;;;;5072364;28;20181;-74
2022/10/30 07:20:47;;;;;;;19.20;10.17;;;;;;;;;;5071568;28;20239;-75
2022/10/30 07:23:13;;;;;;;17.50;9.30;;;;;;;;;;5073011;28;20197;-74
2022/10/30 07:25:39;;;;;;;14.13;9.47;;;;;;;;;;5072824;28;20181;-74
2022/10/30 07:28:05;;;;;;;14.10;9.03;;;;;;;;;;5072881;28;20200;-74
2022/10/30 07:30:31;;;;;;;14.90;8.90;;;;;;;;;;5072327;28;20186;-73
2022/10/30 07:32:58;;;;;;;14.03;8.70;;;;;;;;;;5076513;28;20192;-74
2022/10/30 07:35:24;;;;;;;16.77;8.97;;;;;;;;;;5075023;28;20209;-74
2022/10/30 07:37:50;;;;;;;15.47;9.30;;;;;;;;;;5076765;28;20217;-74
2022/10/30 07:40:16;;;;;;;19.20;9.87;;;;;;;;;;5075258;28;20186;-74
2022/10/30 07:42:42;;;;;;;23.03;9.67;;;;;;;;;;5074923;28;20209;-74
2022/10/30 07:45:08;;;;;;;21.80;9.77;;;;;;;;;;5076793;28;20237;-74
2022/10/30 07:47:38;;;;;;;20.97;10.07;;;;;;;;;;5076510;28;20200;-74
2022/10/30 07:50:04;;;;;;;17.77;8.60;;;;;;;;;;5076714;28;20618;-74
2022/10/30 07:52:33;;;;;;;20.07;9.20;;;;;;;;;;5077636;28;20185;-74
2022/10/30 07:54:59;;;;;;;14.53;8.57;;;;;;;;;;5076824;28;20182;-74
2022/10/30 07:57:25;;;;;;;23.73;9.70;;;;;;;;;;5075958;28;20204;-74
2022/10/30 07:59:51;;;;;;;17.63;8.57;;;;;;;;;;5075936;28;20263;-74
2022/10/30 08:02:17;;;;;;;12.13;8.60;;;;;;;;;;5075397;28;20205;-74
2022/10/30 08:04:42;;;;;;;13.60;8.30;;;;;;;;;;5076845;28;20178;-74
2022/10/30 08:07:09;;;;;;;13.37;8.40;;;;;;;;;;5077021;28;20205;-75
2022/10/30 08:09:34;;;;;;;12.27;8.20;;;;;;;;;;5076189;28;20178;-73
2022/10/30 08:12:00;;;;;;;15.23;7.80;;;;;;;;;;5079249;28;20181;-74
2022/10/30 08:14:26;;;;;;;18.40;8.43;;;;;;;;;;5077701;28;20178;-73
2022/10/30 08:16:52;;;;;;;18.43;7.47;;;;;;;;;;5078923;28;20204;-73
2022/10/30 08:19:18;;;;;;;18.80;7.73;;;;;;;;;;5079208;28;20177;-74
2022/10/30 08:21:44;;;;;;;12.57;7.53;;;;;;;;;;5078841;28;20178;-74
2022/10/30 08:24:10;;;;;;;17.53;7.97;;;;;;;;;;5080458;28;20323;-74
2022/10/30 08:26:36;;;;;;;23.70;7.50;;;;;;;;;;5078447;28;20265;-74
2022/10/30 08:29:02;;;;;;;14.13;7.23;;;;;;;;;;5081656;28;20657;-73
2022/10/30 08:31:28;;;;;;;15.57;7.47;;;;;;;;;;5090115;28;20176;-74
2022/10/30 08:33:54;;;;;;;12.67;7.00;;;;;;;;;;5089751;28;20177;-74
2022/10/30 08:36:20;;;;;;;15.73;7.67;;;;;;;;;;5087600;28;20217;-74
2022/10/30 08:38:46;;;;;;;13.87;7.47;;;;;;;;;;5080765;28;20178;-73
2022/10/30 08:41:12;;;;;;;16.73;7.10;;;;;;;;;;5077087;28;20185;-74
2022/10/30 08:43:38;;;;;;;16.80;6.63;;;;;;;;;;5077151;28;20233;-74
2022/10/30 08:46:04;;;;;;;18.53;6.93;;;;;;;;;;5076746;28;20170;-74
2022/10/30 08:48:30;;;;;;;12.87;7.00;;;;;;;;;;5078579;28;20177;-74
2022/10/30 08:51:00;;;;;;;16.77;7.20;;;;;;;;;;5077009;28;20166;-74
2022/10/30 08:53:26;;;;;;;17.33;6.80;;;;;;;;;;5077855;28;20173;-74
2022/10/30 08:55:52;;;;;;;12.57;6.93;;;;;;;;;;5077513;28;20185;-73
2022/10/30 08:58:17;;;;;;;10.97;6.23;;;;;;;;;;5077196;28;20565;-74
2022/10/30 09:00:43;;;;;;;15.93;6.90;;;;;;;;;;5075742;28;20241;-74
2022/10/30 09:03:09;;;;;;;10.93;6.30;;;;;;;;;;5074779;28;20205;-74
2022/10/30 09:05:36;;;;;;;12.60;6.00;;;;;;;;;;5075073;28;20177;-74
2022/10/30 09:08:02;;;;;;;14.33;6.50;;;;;;;;;;5076357;28;20666;-74
2022/10/30 09:10:28;;;;;;;12.63;6.70;;;;;;;;;;5074278;28;20184;-75
2022/10/30 09:12:58;;;;;;;19.90;7.03;;;;;;;;;;5074227;28;20212;-75
2022/10/30 09:15:24;;;;;;;11.13;6.13;;;;;;;;;;5075295;28;20250;-75
2022/10/30 09:17:57;;;;;;;14.43;7.03;;;;;;;;;;5085210;28;20205;-74
2022/10/30 09:20:24;;;;;;;12.77;6.63;;;;;;;;;;5086942;28;20182;-74
2022/10/30 09:22:50;;;;;;;19.63;10.43;;;;;;;;;;5093446;28;20274;-74
2022/10/30 09:25:16;;;;;;;18.07;7.00;;;;;;;;;;5083807;28;20170;-74
2022/10/30 09:27:42;;;;;;;18.23;6.57;;;;;;;;;;5077121;28;20694;-74
2022/10/30 09:30:08;;;;;;;12.93;6.67;;;;;;;;;;5075291;28;20265;-74
2022/10/30 09:32:34;;;;;;;13.43;5.90;;;;;;;;;;5073673;28;20184;-75
2022/10/30 09:35:00;;;;;;;14.03;6.43;;;;;;;;;;5074203;28;20555;-75
2022/10/30 09:37:26;;;;;;;11.50;6.10;;;;;;;;;;5073582;28;20684;-75
2022/10/30 09:39:52;;;;;;;15.60;6.07;;;;;;;;;;5072447;28;20652;-75
2022/10/30 09:42:36;;;;;;;14.40;5.90;;;;;;;;;;5072220;28;20676;-75
2022/10/30 09:45:17;;;;;;;12.67;6.20;;;;;;;;;;5073562;28;20227;-75
2022/10/30 09:47:50;;;;;;;10.40;5.63;;;;;;;;;;5073476;28;20193;-75
2022/10/30 09:50:31;;;;;;;14.37;6.13;;;;;;;;;;5072139;28;20675;-75
2022/10/30 09:53:03;;;;;;;13.43;5.83;;;;;;;;;;5071457;28;20287;-75
2022/10/30 09:55:33;;;;;;;12.97;5.53;;;;;;;;;;5073367;28;20177;-76
2022/10/30 09:58:02;;;;;;;13.20;6.07;;;;;;;;;;5073394;28;20288;-76
2022/10/30 10:00:39;;;;;;;13.43;5.87;;;;;;;;;;5072451;28;20642;-75
2022/10/30 10:03:13;;;;;;;12.73;5.87;;;;;;;;;;5073634;28;20201;-75
2022/10/30 10:05:45;;;;;;;11.00;5.30;;;;;;;;;;5074631;28;20166;-75
2022/10/30 10:08:14;;;;;;;15.23;6.20;;;;;;;;;;5073320;28;20198;-75
2022/10/30 10:10:42;;;;;;;12.93;5.37;;;;;;;;;;5071735;28;20181;-75
2022/10/30 10:13:15;;;;;;;19.53;6.27;;;;;;;;;;5073100;28;20256;-75
2022/10/30 10:15:49;;;;;;;20.27;6.33;;;;;;;;;;5072173;28;20559;-75
2022/10/30 10:18:19;;;;;;;14.37;6.00;;;;;;;;;;5073263;28;20192;-74
2022/10/30 10:20:47;;;;;;;13.37;6.03;;;;;;;;;;5073179;28;20548;-75
2022/10/30 10:23:18;;;;;;;12.63;5.40;;;;;;;;;;5073379;28;20280;-75
2022/10/30 10:25:49;;;;;;;16.33;5.70;;;;;;;;;;5073926;28;20170;-75
2022/10/30 10:28:25;;;;;;;13.73;6.00;;;;;;;;;;5073668;28;20200;-75
2022/10/30 10:31:05;;;;;;;9.43;5.53;;;;;;;;;;5073336;28;20165;-74
2022/10/30 10:33:46;;;;;;;14.70;5.60;;;;;;;;;;5072993;28;20672;-75
2022/10/30 10:36:38;;;;;;;17.43;5.57;;;;;;;;;;5072777;28;20221;-74
2022/10/30 10:39:23;;;;;;;12.97;5.77;;;;;;;;;;5070108;28;20216;-75
2022/10/30 10:42:04;;;;;;;14.97;5.80;;;;;;;;;;5087926;22;20321;-69
2022/10/30 10:44:30;;;;;;;18.90;6.13;;;;;;;;;;5073243;28;20176;-69
2022/10/30 10:47:15;;;;;;;13.20;5.77;;;;;;;;;;5073202;28;20170;-70
2022/10/30 10:49:46;;;;;;;15.40;6.10;;;;;;;;;;5073194;28;20638;-66
2022/10/30 10:52:21;;;;;;;10.67;5.07;;;;;;;;;;5054925;28;20670;-69
2022/10/30 10:54:56;;;;;;;13.87;6.17;;;;;;;;;;5073265;28;20710;-68
2022/10/30 10:57:26;;;;;;;14.67;5.90;;;;;;;;;;5074018;28;20158;-70
2022/10/30 10:59:56;;;;;;;12.37;5.43;;;;;;;;;;5055685;28;20173;-69
2022/10/30 11:02:35;;;;;;;12.43;5.90;;;;;;;;;;5055539;28;20296;-69
2022/10/30 11:05:36;;;;;;;11.73;5.37;;;;;;;;;;5075447;28;20523;-69
2022/10/30 11:08:24;;;;;;;13.17;5.47;;;;;;;;;;4998649;28;20187;-70
2022/10/30 11:10:58;;;;;;;19.23;5.87;;;;;;;;;;5057110;28;20202;-71
2022/10/30 11:13:50;;;;;;;19.20;6.10;;;;;;;;;;5077538;28;20248;-71
2022/10/30 11:16:25;;;;;;;15.80;5.70;;;;;;;;;;5074212;28;20212;-69
2022/10/30 11:18:53;;;;;;;15.33;5.73;;;;;;;;;;5059117;28;20219;-69
2022/10/30 11:21:22;;;;;;;14.93;5.93;;;;;;;;;;5076717;28;20201;-70
2022/10/30 11:23:48;;;;;;;14.27;5.97;;;;;;;;;;5076610;28;20198;-69
2022/10/30 11:26:17;;;;;;;13.97;5.83;;;;;;;;;;5076742;28;20186;-70
2022/10/30 11:28:43;;;;;;;11.33;5.50;;;;;;;;;;5076847;28;20692;-68
2022/10/30 11:31:33;;;;;;;16.10;6.20;;;;;;;;;;5076766;28;20686;-72
2022/10/30 11:34:12;;;;;;;14.77;5.87;;;;;;;;;;5076998;28;20186;-70
2022/10/30 11:36:38;;;;;;;18.33;6.10;;;;;;;;;;5076907;28;20664;-70
2022/10/30 11:39:11;;;;;;;17.37;6.33;;;;;;;;;;5058866;28;20193;-73
2022/10/30 11:41:38;;;;;;;15.87;6.23;;;;;;;;;;5076044;28;20217;-72
2022/10/30 11:44:05;;;;;;;14.40;7.30;;;;;;;;;;5076722;28;20668;-69
2022/10/30 11:46:32;;;;;;;19.60;6.77;;;;;;;;;;5076915;28;20204;-70
2022/10/30 11:48:58;;;;;;;14.17;6.90;;;;;;;;;;5076609;28;20240;-68
2022/10/30 11:51:32;;;;;;;13.60;6.20;;;;;;;;;;5076220;28;20612;-70
2022/10/30 11:53:58;;;;;;;16.00;6.83;;;;;;;;;;5076100;28;20212;-70
2022/10/30 11:56:24;;;;;;;15.87;5.60;;;;;;;;;;5075997;28;20177;-70
2022/10/30 11:58:51;;;;;;;16.23;6.40;;;;;;;;;;5058122;28;20281;-70
2022/10/30 12:01:23;;;;;;;15.07;6.30;;;;;;;;;;5075962;28;20297;-70
2022/10/30 12:03:49;;;;;;;12.43;6.83;;;;;;;;;;5075946;28;20207;-71
2022/10/30 12:06:24;;;;;;;14.13;5.90;;;;;;;;;;5076142;28;20266;-68
2022/10/30 12:09:00;;;;;;;18.63;6.53;;;;;;;;;;5075380;28;20188;-69
2022/10/30 12:11:30;;;;;;;15.55;6.97;;;;;;;;;;5074036;28;20436;-68
2022/10/30 12:13:57;;;;;;;17.27;6.43;;;;;;;;;;5075230;28;20185;-69
2022/10/30 12:16:23;;;;;;;17.90;5.93;;;;;;;;;;5074728;28;20208;-69
2022/10/30 12:18:53;;;;;;;19.80;6.07;;;;;;;;;;5075168;28;20195;-69
2022/10/30 12:21:19;;;;;;;15.83;6.13;;;;;;;;;;5075121;28;20586;-70
2022/10/30 12:23:51;;;;;;;18.10;7.97;;;;;;;;;;5075318;28;20208;-69
2022/10/30 12:26:16;;;;;;;15.53;7.57;;;;;;;;;;5075455;28;20201;-69
2022/10/30 12:28:51;;;;;;;18.93;6.83;;;;;;;;;;5075379;28;20574;-69
2022/10/30 12:31:22;;;;;;;14.83;7.17;;;;;;;;;;5075495;28;20197;-69
2022/10/30 12:34:07;;;;;;;12.67;6.87;;;;;;;;;;5056908;28;20277;-69
2022/10/30 12:36:35;;;;;;;16.77;6.43;;;;;;;;;;5056774;28;20181;-69
2022/10/30 12:39:12;;;;;;;12.10;6.43;;;;;;;;;;5056693;28;20181;-69
2022/10/30 12:41:58;;;;;;;15.40;6.03;;;;;;;;;;5075030;28;20213;-70
2022/10/30 12:44:27;;;;;;;14.77;6.40;;;;;;;;;;5056808;28;20267;-71
2022/10/30 12:47:11;;;;;;;20.10;5.97;;;;;;;;;;5076890;28;20193;-69
2022/10/30 12:49:42;;;;;;;13.90;6.23;;;;;;;;;;5057679;28;20277;-67
2022/10/30 12:52:17;;;;;;;13.30;7.03;;;;;;;;;;5075822;28;20682;-68
2022/10/30 12:55:03;;;;;;;10.63;6.27;;;;;;;;;;5074746;28;20181;-68
2022/10/30 12:57:35;;;;;;;11.43;6.40;;;;;;;;;;5056846;28;20258;-67
2022/10/30 13:00:03;;;;;;;15.53;6.60;;;;;;;;;;5074807;28;20210;-67
2022/10/30 13:02:36;;;;;;;12.27;6.23;;;;;;;;;;5074669;28;20209;-68
2022/10/30 13:05:05;;;;;;;16.90;6.93;;;;;;;;;;5056677;28;20170;-68
2022/10/30 13:07:43;;;;;;;15.60;7.57;;;;;;;;;;5074376;28;20232;-68
2022/10/30 13:10:18;;;;;;;20.93;7.97;;;;;;;;;;5074774;28;20634;-67
2022/10/30 13:12:46;;;;;;;15.77;6.90;;;;;;;;;;5074398;28;20170;-70
2022/10/30 13:15:20;;;;;;;15.27;6.73;;;;;;;;;;5074296;28;20638;-69
2022/10/30 13:17:46;;;;;;;19.87;6.60;;;;;;;;;;5056269;28;20185;-69
2022/10/30 13:20:13;;;;;;;12.77;6.37;;;;;;;;;;5073847;28;20182;-68
2022/10/30 13:22:44;;;;;;;12.97;6.23;;;;;;;;;;5073954;28;20216;-67
2022/10/30 13:25:17;;;;;;;14.20;6.47;;;;;;;;;;5074248;28;20162;-68
2022/10/30 13:27:55;;;;;;;18.00;6.87;;;;;;;;;;5073733;28;20159;-68
2022/10/30 13:30:22;;;;;;;12.07;6.00;;;;;;;;;;5055773;28;20177;-68
2022/10/30 13:33:06;;;;;;;12.93;6.57;;;;;;;;;;5056393;28;20185;-69
2022/10/30 13:35:35;;;;;;;13.67;6.20;;;;;;;;;;5057131;28;20178;-70
2022/10/30 13:38:19;;;;;;;13.67;6.60;;;;;;;;;;5056674;28;20181;-68
2022/10/30 13:40:50;;;;;;;12.10;6.13;;;;;;;;;;5056649;28;20205;-68
2022/10/30 13:43:30;;;;;;;17.80;6.63;;;;;;;;;;5056008;28;20217;-69
2022/10/30 13:46:09;;;;;;;16.03;5.97;;;;;;;;;;5073955;28;20579;-69
2022/10/30 13:48:50;;;;;;;15.73;6.37;;;;;;;;;;5073522;28;20170;-67
2022/10/30 13:51:19;;;;;;;12.80;5.70;;;;;;;;;;5073535;28;20200;-68
2022/10/30 13:53:47;;;;;;;10.27;6.13;;;;;;;;;;5073993;28;20246;-69
2022/10/30 13:56:15;;;;;;;14.30;6.90;;;;;;;;;;5073408;28;20174;-69
2022/10/30 13:58:47;;;;;;;10.63;6.03;;;;;;;;;;5055599;28;20663;-69
2022/10/30 14:01:13;;;;;;;16.00;6.70;;;;;;;;;;5056054;28;20216;-68
2022/10/30 14:03:50;;;;;;;9.50;5.33;;;;;;;;;;5073712;28;20209;-69
2022/10/30 14:06:38;;;;;;;15.67;6.27;;;;;;;;;;5055380;28;20634;-69
2022/10/30 14:09:24;;;;;;;11.37;5.80;;;;;;;;;;5055280;28;20227;-69
2022/10/30 14:11:53;;;;;;;11.27;6.30;;;;;;;;;;5073128;28;20193;-69
2022/10/30 14:14:22;;;;;;;16.63;6.23;;;;;;;;;;5055102;28;20185;-68
2022/10/30 14:17:03;;;;;;;18.53;5.90;;;;;;;;;;5073263;28;20213;-68
2022/10/30 14:19:29;;;;;;;10.47;5.73;;;;;;;;;;5055340;28;20736;-68
2022/10/30 14:21:58;;;;;;;12.23;6.47;;;;;;;;;;5055051;28;20197;-69
2022/10/30 14:24:34;;;;;;;17.57;8.57;;;;;;;;;;5073058;28;20177;-67
2022/10/30 14:27:02;;;;;;;12.83;6.20;;;;;;;;;;5073082;28;20170;-69
2022/10/30 14:29:34;;;;;;;18.43;6.30;;;;;;;;;;5073149;28;20309;-69
2022/10/30 14:32:01;;;;;;;18.10;9.90;;;;;;;;;;5055080;28;20288;-68
2022/10/30 14:34:43;;;;;;;24.77;10.87;;;;;;;;;;5072887;28;20182;-69
2022/10/30 14:37:09;;;;;;;30.87;16.93;;;;;;;;;;5073339;28;20242;-69